createdAt,value
2023-01-30T00:01:19.123Z,28.52
2023-01-30T00:03:49.057Z,28.80
2023-01-30T00:06:17.246Z,28.90
2023-01-30T00:08:46.152Z,30.67
2023-01-30T00:11:15.969Z,28.45
2023-01-30T00:13:44.877Z,32.63
2023-01-30T00:16:13.601Z,28.58
2023-01-30T00:18:42.989Z,30.20
2023-01-30T00:21:16.998Z,29.48
2023-01-30T00:23:45.833Z,28.58
2023-01-30T00:26:14.101Z,29.50
2023-01-30T00:28:42.273Z,28.88
2023-01-30T00:31:10.597Z,31.25
2023-01-30T00:33:39.838Z,28.85
2023-01-30T00:36:08.699Z,29.38
2023-01-30T00:38:40.982Z,28.60
2023-01-30T00:41:10.996Z,28.55
2023-01-30T00:43:56.355Z,28.10
2023-01-30T00:46:46.664Z,28.85
2023-01-30T00:49:14.608Z,27.95
2023-01-30T00:51:43.043Z,32.20
2023-01-30T00:54:12.389Z,28.27
2023-01-30T00:56:40.295Z,28.42
2023-01-30T00:59:08.684Z,28.05
2023-01-30T01:01:37.809Z,28.30
2023-01-30T01:04:06.487Z,28.13
2023-01-30T01:06:34.649Z,28.13
2023-01-30T01:09:02.817Z,27.45
2023-01-30T01:11:34.911Z,28.17
2023-01-30T01:14:04.198Z,28.77
2023-01-30T01:16:33.715Z,26.88
2023-01-30T01:19:01.934Z,28.27
2023-01-30T01:21:30.605Z,27.40
2023-01-30T01:24:00.344Z,27.70
2023-01-30T01:26:28.664Z,28.17
2023-01-30T01:28:58.813Z,28.50
2023-01-30T01:31:27.543Z,28.50
2023-01-30T01:33:55.760Z,27.67
2023-01-30T01:36:51.733Z,28.38
2023-01-30T01:39:12.582Z,27.73
2023-01-30T01:41:39.471Z,27.58
2023-01-30T01:44:10.939Z,29.07
2023-01-30T01:46:42.550Z,28.45
2023-01-30T01:49:18.327Z,28.77
2023-01-30T01:51:52.137Z,28.10
2023-01-30T01:54:24.600Z,28.67
2023-01-30T01:56:53.012Z,27.92
2023-01-30T01:59:27.686Z,28.48
2023-01-30T02:01:59.148Z,27.27
2023-01-30T02:04:42.586Z,27.63
2023-01-30T02:07:11.345Z,28.35
2023-01-30T02:09:39.591Z,29.17
2023-01-30T02:12:08.294Z,29.35
2023-01-30T02:14:39.302Z,28.65
2023-01-30T02:17:07.314Z,27.40
2023-01-30T02:19:42.426Z,28.23
2023-01-30T02:22:45.515Z,28.35
2023-01-30T02:25:56.482Z,28.23
2023-01-30T02:28:43.233Z,28.15
2023-01-30T02:31:37.150Z,28.02
2023-01-30T02:34:33.812Z,27.98
2023-01-30T02:37:08.524Z,27.40
2023-01-30T02:39:44.924Z,28.73
2023-01-30T02:42:24.836Z,27.90
2023-01-30T02:45:00.369Z,27.55
2023-01-30T02:47:34.928Z,26.15
2023-01-30T02:50:11.518Z,27.08
2023-01-30T02:52:41.464Z,26.42
2023-01-30T02:55:18.775Z,27.25
2023-01-30T02:57:46.865Z,28.00
2023-01-30T03:00:20.634Z,27.05
2023-01-30T03:03:18.271Z,27.13
2023-01-30T03:06:06.352Z,26.83
2023-01-30T03:08:41.446Z,29.65
2023-01-30T03:11:11.706Z,27.55
2023-01-30T03:13:48.668Z,28.47
2023-01-30T03:16:22.965Z,28.33
2023-01-30T03:18:52.532Z,29.67
2023-01-30T03:21:20.838Z,27.63
2023-01-30T03:23:49.158Z,28.83
2023-01-30T03:26:21.280Z,27.38
2023-01-30T03:28:51.485Z,27.73
2023-01-30T03:31:19.610Z,27.65
2023-01-30T03:33:47.627Z,27.70
2023-01-30T03:36:17.225Z,28.57
2023-01-30T03:38:45.212Z,27.80
2023-01-30T03:41:13.382Z,28.65
2023-01-30T03:43:41.435Z,28.85
2023-01-30T03:46:09.617Z,28.63
2023-01-30T03:48:37.633Z,36.03
2023-01-30T03:51:06.076Z,28.47
2023-01-30T03:53:35.655Z,28.40
2023-01-30T03:56:04.001Z,28.70
2023-01-30T03:58:32.014Z,27.65
2023-01-30T04:01:00.272Z,29.15
2023-01-30T04:03:28.322Z,26.50
2023-01-30T04:05:56.974Z,26.88
2023-01-30T04:08:24.987Z,27.23
2023-01-30T04:10:54.604Z,27.03
2023-01-30T04:13:22.676Z,29.48
2023-01-30T04:15:50.908Z,27.87
2023-01-30T04:18:18.918Z,27.40
2023-01-30T04:20:47.120Z,28.33
2023-01-30T04:23:15.501Z,30.15
2023-01-30T04:25:47.147Z,26.33
2023-01-30T04:28:16.666Z,26.80
2023-01-30T04:30:44.902Z,26.77
2023-01-30T04:33:12.831Z,25.80
2023-01-30T04:35:40.897Z,27.73
2023-01-30T04:38:08.848Z,27.10
2023-01-30T04:40:36.824Z,26.93
2023-01-30T04:43:04.974Z,26.00
2023-01-30T04:45:37.585Z,26.73
2023-01-30T04:48:06.374Z,26.70
2023-01-30T04:50:34.258Z,26.93
2023-01-30T04:53:02.210Z,27.33
2023-01-30T04:55:32.083Z,26.20
2023-01-30T04:58:00.142Z,27.80
2023-01-30T05:00:28.939Z,27.80
2023-01-30T05:02:58.396Z,26.77
2023-01-30T05:05:27.664Z,26.65
2023-01-30T05:07:56.085Z,27.70
2023-01-30T05:10:24.127Z,28.17
2023-01-30T05:12:52.256Z,29.27
2023-01-30T05:15:20.620Z,28.20
2023-01-30T05:17:48.956Z,28.35
2023-01-30T05:20:18.721Z,28.70
2023-01-30T05:22:46.873Z,27.93
2023-01-30T05:25:14.971Z,28.33
2023-01-30T05:27:42.944Z,30.03
2023-01-30T05:30:12.420Z,28.37
2023-01-30T05:32:40.444Z,28.03
2023-01-30T05:35:09.454Z,28.73
2023-01-30T05:37:38.964Z,27.20
2023-01-30T05:40:09.103Z,29.43
2023-01-30T05:42:37.104Z,29.13
2023-01-30T05:45:05.778Z,28.67
2023-01-30T05:47:33.833Z,29.37
2023-01-30T05:50:02.114Z,27.97
2023-01-30T05:52:30.419Z,28.97
2023-01-30T05:55:00.246Z,27.50
2023-01-30T05:57:28.262Z,30.47
2023-01-30T05:59:56.338Z,30.17
2023-01-30T06:02:24.404Z,28.77
2023-01-30T06:04:52.522Z,34.27
2023-01-30T06:07:20.501Z,31.17
2023-01-30T06:09:48.648Z,27.43
2023-01-30T06:12:18.163Z,32.47
2023-01-30T06:14:46.209Z,33.57
2023-01-30T06:17:14.285Z,27.53
2023-01-30T06:19:42.309Z,27.27
2023-01-30T06:22:10.311Z,26.33
2023-01-30T06:24:38.262Z,29.70
2023-01-30T06:27:06.329Z,32.30
2023-01-30T06:29:35.959Z,27.80
2023-01-30T06:32:04.275Z,27.90
2023-01-30T06:34:32.764Z,26.70
2023-01-30T06:37:00.847Z,31.03
2023-01-30T06:39:28.966Z,29.83
2023-01-30T06:41:57.094Z,29.93
2023-01-30T06:44:25.362Z,28.93
2023-01-30T06:46:55.361Z,24.23
2023-01-30T06:49:23.396Z,23.23
2023-01-30T06:51:51.442Z,22.37
2023-01-30T06:54:19.696Z,25.17
2023-01-30T06:56:47.607Z,21.27
2023-01-30T06:59:15.896Z,32.10
2023-01-30T07:01:44.085Z,20.30
2023-01-30T07:04:13.589Z,25.03
2023-01-30T07:06:41.609Z,28.17
2023-01-30T07:09:09.669Z,26.50
2023-01-30T07:11:37.841Z,24.23
2023-01-30T07:14:07.277Z,23.83
2023-01-30T07:16:35.320Z,21.97
2023-01-30T07:19:03.395Z,23.50
2023-01-30T07:21:33.252Z,23.53
2023-01-30T07:24:01.487Z,20.73
2023-01-30T07:26:31.684Z,24.60
2023-01-30T07:28:59.920Z,28.40
2023-01-30T07:31:27.905Z,24.73
2023-01-30T07:33:55.893Z,23.83
2023-01-30T07:36:24.037Z,26.03
2023-01-30T07:38:53.624Z,25.27
2023-01-30T07:41:21.584Z,27.50
2023-01-30T07:43:50.586Z,23.90
2023-01-30T07:46:18.633Z,24.40
2023-01-30T07:48:46.948Z,23.50
2023-01-30T07:51:15.223Z,22.93
2023-01-30T07:53:43.236Z,23.30
2023-01-30T07:56:14.390Z,24.40
2023-01-30T07:58:42.433Z,23.23
2023-01-30T08:01:10.961Z,25.17
2023-01-30T08:03:39.080Z,25.60
2023-01-30T08:06:07.514Z,24.50
2023-01-30T08:08:35.696Z,31.93
2023-01-30T08:11:03.958Z,25.60
2023-01-30T08:13:33.714Z,23.00
2023-01-30T08:16:02.002Z,25.57
2023-01-30T08:18:30.788Z,23.00
2023-01-30T08:20:58.905Z,23.63
2023-01-30T08:23:26.971Z,25.00
2023-01-30T08:25:56.220Z,26.63
2023-01-30T08:28:24.939Z,23.53
2023-01-30T08:30:55.421Z,25.53
2023-01-30T08:33:24.369Z,24.63
2023-01-30T08:35:52.768Z,25.30
2023-01-30T08:38:20.783Z,24.57
2023-01-30T08:40:48.818Z,23.83
2023-01-30T08:43:16.933Z,25.13
2023-01-30T08:45:45.001Z,24.27
2023-01-30T08:48:14.623Z,24.13
2023-01-30T08:50:42.633Z,23.47
2023-01-30T08:53:10.640Z,22.80
2023-01-30T08:55:38.636Z,21.17
2023-01-30T08:58:06.670Z,26.30
2023-01-30T09:00:34.736Z,22.10
2023-01-30T09:03:02.891Z,23.07
2023-01-30T09:05:33.267Z,21.93
2023-01-30T09:08:01.305Z,20.83
2023-01-30T09:10:29.680Z,29.23
2023-01-30T09:12:57.894Z,22.90
2023-01-30T09:15:25.894Z,24.40
2023-01-30T09:17:54.150Z,23.30
2023-01-30T09:20:22.311Z,21.23
2023-01-30T09:22:51.633Z,22.40
2023-01-30T09:25:20.291Z,21.37
2023-01-30T09:27:50.373Z,21.13
2023-01-30T09:30:19.552Z,19.60
2023-01-30T09:32:49.144Z,19.27
2023-01-30T09:35:17.230Z,21.90
2023-01-30T09:37:48.965Z,21.67
2023-01-30T09:40:22.727Z,21.83
2023-01-30T09:43:08.119Z,20.33
2023-01-30T09:45:52.144Z,19.60
2023-01-30T09:48:25.490Z,20.97
2023-01-30T09:51:12.441Z,25.63
2023-01-30T09:54:13.560Z,19.77
2023-01-30T09:56:43.514Z,22.97
2023-01-30T09:59:22.347Z,19.87
2023-01-30T10:01:56.186Z,21.77
2023-01-30T10:04:34.222Z,20.17
2023-01-30T10:07:14.479Z,22.67
2023-01-30T10:09:49.485Z,18.00
2023-01-30T10:12:32.708Z,26.08
2023-01-30T10:15:16.592Z,17.67
2023-01-30T10:17:58.981Z,19.93
2023-01-30T10:21:01.070Z,23.53
2023-01-30T10:24:02.798Z,17.23
2023-01-30T10:26:32.734Z,20.37
2023-01-30T10:29:07.730Z,21.95
2023-01-30T10:31:41.443Z,22.07
2023-01-30T10:34:15.814Z,18.55
2023-01-30T10:36:50.047Z,19.17
2023-01-30T10:39:27.125Z,19.03
2023-01-30T10:42:03.548Z,21.20
2023-01-30T10:44:34.714Z,32.03
2023-01-30T10:47:22.092Z,20.33
2023-01-30T10:49:54.066Z,21.88
2023-01-30T10:52:36.680Z,20.30
2023-01-30T10:55:31.488Z,27.50
2023-01-30T10:58:13.622Z,24.83
2023-01-30T11:00:46.369Z,23.37
2023-01-30T11:03:22.192Z,21.50
2023-01-30T11:05:52.191Z,23.47
2023-01-30T11:08:23.832Z,21.40
2023-01-30T11:10:52.882Z,20.00
2023-01-30T11:13:24.698Z,21.73
2023-01-30T11:15:56.981Z,26.40
2023-01-30T11:21:22.263Z,21.00
2023-01-30T11:23:51.782Z,20.45
2023-01-30T11:26:29.486Z,22.88
2023-01-30T11:29:00.139Z,21.58
2023-01-30T11:31:41.345Z,24.90
2023-01-30T11:34:17.244Z,22.55
2023-01-30T11:36:47.176Z,23.33
2023-01-30T11:39:29.526Z,19.67
2023-01-30T11:42:04.645Z,30.42
2023-01-30T11:44:35.105Z,26.40
2023-01-30T11:47:08.687Z,25.60
2023-01-30T11:49:46.082Z,28.63
2023-01-30T11:52:19.733Z,44.20
2023-01-30T11:54:49.679Z,22.58
2023-01-30T11:57:20.744Z,27.70
2023-01-30T11:59:55.273Z,27.70
2023-01-30T12:02:26.934Z,22.45
2023-01-30T12:05:00.621Z,21.92
2023-01-30T12:07:32.988Z,23.25
2023-01-30T12:10:01.554Z,28.80
2023-01-30T12:12:35.743Z,32.38
2023-01-30T12:15:20.033Z,36.83
2023-01-30T12:17:57.231Z,27.35
2023-01-30T12:20:39.205Z,26.42
2023-01-30T12:23:13.668Z,25.85
2023-01-30T12:25:46.845Z,31.00
2023-01-30T12:28:23.860Z,27.27
2023-01-30T12:30:58.361Z,20.95
2023-01-30T12:33:34.925Z,26.67
2023-01-30T12:36:14.437Z,25.45
2023-01-30T12:38:59.081Z,22.27
2023-01-30T12:41:42.518Z,23.25
2023-01-30T12:44:35.248Z,24.48
2023-01-30T12:47:28.582Z,24.33
2023-01-30T12:50:15.403Z,21.80
2023-01-30T12:52:59.420Z,30.42
2023-01-30T12:55:38.130Z,21.83
2023-01-30T12:58:15.324Z,22.00
2023-01-30T13:01:00.223Z,24.15
2023-01-30T13:03:36.783Z,25.90
2023-01-30T13:06:20.874Z,23.95
2023-01-30T13:08:58.833Z,29.38
2023-01-30T13:11:43.979Z,27.58
2023-01-30T13:49:15.502Z,18.75
2023-01-30T13:51:49.258Z,24.55
2023-01-30T13:54:41.571Z,27.90
2023-01-30T13:57:21.970Z,21.63
2023-01-30T14:00:23.649Z,25.95
2023-01-30T14:03:24.239Z,25.63
2023-01-30T14:06:10.344Z,21.08
2023-01-30T14:08:55.403Z,23.23
2023-01-30T14:11:51.021Z,24.95
2023-01-30T14:14:52.801Z,25.35
2023-01-30T14:17:26.389Z,23.65
2023-01-30T14:20:07.377Z,30.27
2023-01-30T14:22:49.539Z,27.45
2023-01-30T14:25:52.225Z,22.00
2023-01-30T14:28:54.324Z,26.85
2023-01-30T14:32:02.333Z,19.55
2023-01-30T14:35:22.389Z,23.08
2023-01-30T14:41:28.154Z,24.30
2023-01-30T14:43:56.729Z,20.58
2023-01-30T14:46:58.095Z,27.63
2023-01-30T15:35:22.530Z,24.20
2023-01-30T15:42:13.102Z,25.60
2023-01-30T15:45:04.941Z,26.45
2023-01-30T15:49:02.393Z,27.50
2023-01-30T15:52:32.786Z,27.40
2023-01-30T15:55:05.593Z,28.45
2023-01-30T16:00:36.811Z,28.95
2023-01-30T16:03:46.903Z,28.13
2023-01-30T16:06:32.904Z,25.17
2023-01-30T16:12:55.428Z,26.33
2023-01-30T16:28:11.880Z,29.67
2023-01-30T16:31:04.580Z,22.57
2023-01-30T16:33:38.403Z,28.52
2023-01-30T16:49:33.741Z,23.23
2023-01-30T16:52:04.447Z,23.73
2023-01-30T16:54:35.214Z,26.40
2023-01-30T16:57:04.325Z,20.48
2023-01-30T16:59:34.939Z,21.35
2023-01-30T17:02:06.978Z,25.20
2023-01-30T17:04:41.438Z,24.47
2023-01-30T17:07:33.696Z,29.20
2023-01-30T17:10:01.804Z,24.60
2023-01-30T17:12:49.727Z,32.87
2023-01-30T17:15:29.353Z,27.73
2023-01-30T17:17:58.135Z,26.13
2023-01-30T17:20:36.740Z,25.67
2023-01-30T17:23:08.887Z,24.77
2023-01-30T17:25:40.759Z,29.13
2023-01-30T17:28:10.036Z,20.23
2023-01-30T17:30:39.198Z,20.87
2023-01-30T17:33:08.438Z,27.00
2023-01-30T17:35:39.286Z,23.23
2023-01-30T17:38:07.390Z,24.37
2023-01-30T17:40:37.838Z,26.27
2023-01-30T17:43:06.248Z,27.08
2023-01-30T17:45:34.528Z,26.40
2023-01-30T17:48:02.830Z,21.27
2023-01-30T17:50:32.463Z,22.93
2023-01-30T17:53:01.888Z,21.27
2023-01-30T17:55:30.497Z,25.47
2023-01-30T17:57:58.655Z,20.93
2023-01-30T18:00:27.170Z,22.10
2023-01-30T18:02:55.551Z,18.58
2023-01-30T18:05:24.252Z,18.77
2023-01-30T18:07:52.291Z,25.47
2023-01-30T18:10:22.091Z,20.63
2023-01-30T18:12:50.266Z,23.90
2023-01-30T18:15:18.517Z,17.57
2023-01-30T18:17:48.992Z,19.65
2023-01-30T18:20:20.530Z,22.63
2023-01-30T18:22:49.279Z,23.57
2023-01-30T18:25:18.282Z,27.07
2023-01-30T18:27:48.215Z,21.37
2023-01-30T18:30:18.320Z,20.00
2023-01-30T18:32:53.610Z,22.57
2023-01-30T18:35:22.717Z,19.60
2023-01-30T18:37:51.127Z,18.08
2023-01-30T18:40:20.156Z,22.33
2023-01-30T18:42:50.208Z,25.80
2023-01-30T18:45:18.446Z,23.73
2023-01-30T18:47:46.536Z,18.40
2023-01-30T18:50:14.445Z,20.20
2023-01-30T18:52:42.490Z,17.30
2023-01-30T18:55:11.046Z,23.07
2023-01-30T18:57:38.970Z,21.43
2023-01-30T19:00:10.733Z,15.47
2023-01-30T19:02:38.829Z,21.50
2023-01-30T19:05:07.730Z,21.10
2023-01-30T19:07:37.392Z,20.37
2023-01-30T19:10:06.004Z,15.10
2023-01-30T19:12:51.450Z,20.40
2023-01-30T19:15:20.914Z,19.07
2023-01-30T19:17:49.042Z,21.63
2023-01-30T19:20:18.582Z,17.13
2023-01-30T19:22:49.305Z,17.63
2023-01-30T19:25:17.874Z,16.33
2023-01-30T19:27:46.379Z,13.87
2023-01-30T19:30:18.427Z,20.00
2023-01-30T19:32:48.941Z,25.17
2023-01-30T19:35:17.550Z,21.77
2023-01-30T19:37:46.176Z,16.87
2023-01-30T19:40:14.493Z,16.90
2023-01-30T19:42:44.615Z,19.13
2023-01-30T19:45:13.623Z,24.23
2023-01-30T19:47:43.660Z,19.63
2023-01-30T19:50:14.569Z,17.13
2023-01-30T19:52:46.009Z,23.80
2023-01-30T19:55:20.963Z,16.00
2023-01-30T19:57:49.693Z,24.50
2023-01-30T20:00:19.172Z,21.87
2023-01-30T20:02:48.720Z,16.93
2023-01-30T20:05:20.751Z,21.47
2023-01-30T20:07:53.571Z,17.10
2023-01-30T20:10:22.338Z,20.07
2023-01-30T20:12:51.482Z,29.10
2023-01-30T20:15:22.579Z,20.07
2023-01-30T20:17:52.187Z,17.60
2023-01-30T20:20:25.462Z,22.03
2023-01-30T20:22:53.846Z,23.60
2023-01-30T20:25:22.623Z,20.03
2023-01-30T20:27:50.737Z,15.40
2023-01-30T20:30:19.877Z,20.60
2023-01-30T20:32:48.639Z,22.13
2023-01-30T20:35:17.730Z,21.23
2023-01-30T20:37:47.514Z,15.33
2023-01-30T20:40:16.039Z,21.83
2023-01-30T20:42:44.481Z,19.73
2023-01-30T20:45:13.107Z,22.73
2023-01-30T20:47:41.295Z,17.47
2023-01-30T20:50:13.743Z,14.93
2023-01-30T20:52:43.058Z,17.53
2023-01-30T20:55:13.364Z,25.03
2023-01-30T20:57:43.865Z,21.10
2023-01-30T21:00:12.957Z,19.77
2023-01-30T21:02:42.716Z,22.23
2023-01-30T21:05:10.899Z,14.97
2023-01-30T21:07:39.163Z,20.50
2023-01-30T21:10:07.915Z,18.63
2023-01-30T21:12:37.503Z,20.57
2023-01-30T21:15:06.254Z,18.43
2023-01-30T21:17:34.424Z,24.90
2023-01-30T21:20:02.610Z,18.73
2023-01-30T21:22:30.788Z,18.77
2023-01-30T21:24:59.390Z,23.93
2023-01-30T21:27:27.600Z,16.27
2023-01-30T21:29:57.560Z,25.77
2023-01-30T21:32:25.725Z,18.53
2023-01-30T21:34:53.730Z,19.27
2023-01-30T21:37:39.235Z,19.63
2023-01-30T21:40:27.784Z,23.73
2023-01-30T21:43:13.306Z,19.60
2023-01-30T21:45:43.225Z,21.43
2023-01-30T21:48:11.468Z,19.50
2023-01-30T21:50:39.853Z,19.87
2023-01-30T21:53:08.041Z,16.90
2023-01-30T21:55:36.571Z,20.77
2023-01-30T21:58:04.552Z,21.63
2023-01-30T22:00:32.977Z,18.83
2023-01-30T22:03:02.623Z,24.07
2023-01-30T22:05:36.572Z,18.27
2023-01-30T22:08:05.698Z,18.57
2023-01-30T22:10:33.589Z,18.50
2023-01-30T22:13:01.929Z,20.53
2023-01-30T22:15:30.188Z,23.40
2023-01-30T22:17:58.360Z,20.13
2023-01-30T22:20:27.838Z,21.23
2023-01-30T22:22:55.905Z,22.23
2023-01-30T22:25:24.086Z,20.33
2023-01-30T22:27:52.495Z,20.20
2023-01-30T22:30:20.871Z,26.33
2023-01-30T22:32:48.935Z,21.83
2023-01-30T22:35:17.377Z,22.00
2023-01-30T22:37:47.045Z,23.50
2023-01-30T22:40:15.409Z,22.67
2023-01-30T22:42:48.395Z,21.17
2023-01-30T22:45:16.764Z,21.43
2023-01-30T22:47:44.809Z,21.33
2023-01-30T22:50:12.983Z,27.17
2023-01-30T22:52:41.076Z,22.60
2023-01-30T22:55:11.085Z,22.60
2023-01-30T22:57:39.355Z,26.37
2023-01-30T23:00:09.060Z,26.27
2023-01-30T23:02:37.530Z,23.20
2023-01-30T23:05:06.763Z,21.93
2023-01-30T23:07:35.712Z,23.07
2023-01-30T23:10:05.726Z,22.63
2023-01-30T23:12:51.894Z,23.50
2023-01-30T23:15:20.516Z,27.47
2023-01-30T23:18:06.150Z,23.53
2023-01-30T23:20:34.388Z,24.10
2023-01-30T23:23:03.300Z,24.50
2023-01-30T23:25:31.841Z,25.07
2023-01-30T23:28:01.870Z,25.40
2023-01-30T23:30:32.518Z,25.50
2023-01-30T23:33:00.967Z,26.33
2023-01-30T23:35:29.157Z,28.77
2023-01-30T23:38:14.767Z,26.13
2023-01-30T23:40:43.125Z,26.47
2023-01-30T23:43:12.810Z,29.73
2023-01-30T23:45:41.139Z,26.53
2023-01-30T23:48:10.511Z,26.37
2023-01-30T23:50:42.137Z,25.17
2023-01-30T23:53:11.133Z,28.37
2023-01-30T23:55:39.878Z,29.77
2023-01-30T23:58:08.241Z,25.53
